sensor_id;sensor_type;location;lat;lon;timestamp;P1;durP1;ratioP1;P2;durP2;ratioP2
15958;SDS011;8078;47.822;9.402;2022-09-09T00:03:53;4.28;;;1.90;;
15958;SDS011;8078;47.822;9.402;2022-09-09T00:06:49;3.75;;;1.70;;
15958;SDS011;8078;47.822;9.402;2022-09-09T00:09:23;6.63;;;2.00;;
15958;SDS011;8078;47.822;9.402;2022-09-09T00:12:10;4.57;;;1.70;;
15958;SDS011;8078;47.822;9.402;2022-09-09T00:19:55;5.63;;;1.50;;
15958;SDS011;8078;47.822;9.402;2022-09-09T00:22:27;3.55;;;1.52;;
15958;SDS011;8078;47.822;9.402;2022-09-09T00:25:02;2.45;;;1.40;;
15958;SDS011;8078;47.822;9.402;2022-09-09T00:30:15;5.32;;;1.77;;
15958;SDS011;8078;47.822;9.402;2022-09-09T00:32:47;3.33;;;1.50;;
15958;SDS011;8078;47.822;9.402;2022-09-09T00:37:52;4.95;;;1.55;;
15958;SDS011;8078;47.822;9.402;2022-09-09T00:43:28;3.33;;;1.50;;
15958;SDS011;8078;47.822;9.402;2022-09-09T00:46:03;2.65;;;1.40;;
15958;SDS011;8078;47.822;9.402;2022-09-09T00:54:40;5.53;;;2.10;;
15958;SDS011;8078;47.822;9.402;2022-09-09T00:57:27;6.15;;;2.22;;
15958;SDS011;8078;47.822;9.402;2022-09-09T01:08:11;3.88;;;2.97;;
15958;SDS011;8078;47.822;9.402;2022-09-09T01:10:59;4.28;;;2.85;;
15958;SDS011;8078;47.822;9.402;2022-09-09T01:13:28;2.85;;;2.63;;
15958;SDS011;8078;47.822;9.402;2022-09-09T01:15:57;3.08;;;2.80;;
15958;SDS011;8078;47.822;9.402;2022-09-09T01:18:34;5.88;;;2.97;;
15958;SDS011;8078;47.822;9.402;2022-09-09T01:21:14;6.88;;;2.88;;
15958;SDS011;8078;47.822;9.402;2022-09-09T01:26:35;4.55;;;3.10;;
15958;SDS011;8078;47.822;9.402;2022-09-09T01:29:06;4.45;;;2.97;;
15958;SDS011;8078;47.822;9.402;2022-09-09T01:31:37;8.43;;;2.90;;
15958;SDS011;8078;47.822;9.402;2022-09-09T01:34:13;5.07;;;3.05;;
15958;SDS011;8078;47.822;9.402;2022-09-09T01:36:44;4.53;;;2.97;;
15958;SDS011;8078;47.822;9.402;2022-09-09T01:39:15;6.70;;;2.85;;
15958;SDS011;8078;47.822;9.402;2022-09-09T01:41:41;5.90;;;2.85;;
15958;SDS011;8078;47.822;9.402;2022-09-09T01:44:07;5.93;;;2.53;;
15958;SDS011;8078;47.822;9.402;2022-09-09T01:46:34;2.95;;;2.65;;
15958;SDS011;8078;47.822;9.402;2022-09-09T01:49:00;3.97;;;2.80;;
15958;SDS011;8078;47.822;9.402;2022-09-09T01:51:28;4.03;;;2.45;;
15958;SDS011;8078;47.822;9.402;2022-09-09T01:53:54;5.05;;;2.50;;
15958;SDS011;8078;47.822;9.402;2022-09-09T02:07:51;4.68;;;2.47;;
15958;SDS011;8078;47.822;9.402;2022-09-09T02:10:28;2.58;;;2.10;;
15958;SDS011;8078;47.822;9.402;2022-09-09T02:13:36;6.07;;;2.45;;
15958;SDS011;8078;47.822;9.402;2022-09-09T02:15:55;2.65;;;1.75;;
15958;SDS011;8078;47.822;9.402;2022-09-09T02:18:49;3.10;;;2.17;;
15958;SDS011;8078;47.822;9.402;2022-09-09T02:21:22;3.90;;;1.67;;
15958;SDS011;8078;47.822;9.402;2022-09-09T02:23:49;2.05;;;1.77;;
15958;SDS011;8078;47.822;9.402;2022-09-09T02:26:18;2.10;;;1.73;;
15958;SDS011;8078;47.822;9.402;2022-09-09T02:28:50;4.85;;;1.73;;
15958;SDS011;8078;47.822;9.402;2022-09-09T02:31:18;5.35;;;1.80;;
15958;SDS011;8078;47.822;9.402;2022-09-09T02:34:05;5.28;;;2.28;;
15958;SDS011;8078;47.822;9.402;2022-09-09T02:36:35;4.28;;;1.80;;
15958;SDS011;8078;47.822;9.402;2022-09-09T02:39:04;7.40;;;2.20;;
15958;SDS011;8078;47.822;9.402;2022-09-09T02:41:33;2.10;;;1.90;;
15958;SDS011;8078;47.822;9.402;2022-09-09T02:44:00;3.58;;;2.30;;
15958;SDS011;8078;47.822;9.402;2022-09-09T02:49:29;7.35;;;3.15;;
15958;SDS011;8078;47.822;9.402;2022-09-09T02:52:05;5.95;;;2.88;;
15958;SDS011;8078;47.822;9.402;2022-09-09T02:54:34;4.22;;;3.30;;
15958;SDS011;8078;47.822;9.402;2022-09-09T02:59:31;6.03;;;4.40;;
15958;SDS011;8078;47.822;9.402;2022-09-09T03:01:56;7.32;;;4.38;;
15958;SDS011;8078;47.822;9.402;2022-09-09T03:04:22;10.07;;;4.93;;
15958;SDS011;8078;47.822;9.402;2022-09-09T03:06:49;9.38;;;5.05;;
15958;SDS011;8078;47.822;9.402;2022-09-09T03:09:15;10.77;;;4.78;;
15958;SDS011;8078;47.822;9.402;2022-09-09T03:11:40;7.35;;;4.30;;
15958;SDS011;8078;47.822;9.402;2022-09-09T03:14:06;8.73;;;3.85;;
15958;SDS011;8078;47.822;9.402;2022-09-09T03:16:32;3.67;;;2.70;;
15958;SDS011;8078;47.822;9.402;2022-09-09T03:18:59;5.15;;;2.60;;
15958;SDS011;8078;47.822;9.402;2022-09-09T03:21:25;5.43;;;2.30;;
15958;SDS011;8078;47.822;9.402;2022-09-09T03:23:51;3.90;;;2.80;;
15958;SDS011;8078;47.822;9.402;2022-09-09T03:26:16;3.15;;;2.80;;
15958;SDS011;8078;47.822;9.402;2022-09-09T03:28:42;4.78;;;2.20;;
15958;SDS011;8078;47.822;9.402;2022-09-09T03:31:09;4.22;;;2.55;;
15958;SDS011;8078;47.822;9.402;2022-09-09T03:33:39;4.75;;;2.20;;
15958;SDS011;8078;47.822;9.402;2022-09-09T03:36:06;5.68;;;3.08;;
15958;SDS011;8078;47.822;9.402;2022-09-09T03:38:33;3.97;;;2.33;;
15958;SDS011;8078;47.822;9.402;2022-09-09T03:40:59;4.13;;;2.30;;
15958;SDS011;8078;47.822;9.402;2022-09-09T03:43:26;4.25;;;2.38;;
15958;SDS011;8078;47.822;9.402;2022-09-09T03:45:53;4.38;;;2.30;;
15958;SDS011;8078;47.822;9.402;2022-09-09T03:48:22;4.90;;;2.75;;
15958;SDS011;8078;47.822;9.402;2022-09-09T03:50:48;4.63;;;2.60;;
15958;SDS011;8078;47.822;9.402;2022-09-09T03:53:19;8.80;;;2.67;;
15958;SDS011;8078;47.822;9.402;2022-09-09T03:55:46;3.75;;;2.70;;
15958;SDS011;8078;47.822;9.402;2022-09-09T03:58:13;3.75;;;2.08;;
15958;SDS011;8078;47.822;9.402;2022-09-09T04:00:40;5.03;;;2.30;;
15958;SDS011;8078;47.822;9.402;2022-09-09T04:03:08;4.13;;;2.92;;
15958;SDS011;8078;47.822;9.402;2022-09-09T04:05:34;8.48;;;2.55;;
15958;SDS011;8078;47.822;9.402;2022-09-09T04:08:04;4.45;;;2.20;;
15958;SDS011;8078;47.822;9.402;2022-09-09T04:10:30;4.38;;;2.70;;
15958;SDS011;8078;47.822;9.402;2022-09-09T04:12:56;6.95;;;2.28;;
15958;SDS011;8078;47.822;9.402;2022-09-09T04:15:22;7.53;;;3.08;;
15958;SDS011;8078;47.822;9.402;2022-09-09T04:17:47;4.13;;;2.25;;
15958;SDS011;8078;47.822;9.402;2022-09-09T04:20:13;2.97;;;2.10;;
15958;SDS011;8078;47.822;9.402;2022-09-09T04:22:38;6.38;;;2.60;;
15958;SDS011;8078;47.822;9.402;2022-09-09T04:25:05;3.97;;;2.00;;
15958;SDS011;8078;47.822;9.402;2022-09-09T04:27:31;7.28;;;2.20;;
15958;SDS011;8078;47.822;9.402;2022-09-09T04:29:57;9.07;;;2.40;;
15958;SDS011;8078;47.822;9.402;2022-09-09T04:32:22;3.15;;;2.10;;
15958;SDS011;8078;47.822;9.402;2022-09-09T04:34:48;6.05;;;2.08;;
15958;SDS011;8078;47.822;9.402;2022-09-09T04:37:14;6.13;;;2.05;;
15958;SDS011;8078;47.822;9.402;2022-09-09T04:39:39;4.97;;;2.33;;
15958;SDS011;8078;47.822;9.402;2022-09-09T04:42:05;2.45;;;1.80;;
15958;SDS011;8078;47.822;9.402;2022-09-09T04:44:30;2.35;;;1.70;;
15958;SDS011;8078;47.822;9.402;2022-09-09T04:46:56;6.70;;;2.00;;
15958;SDS011;8078;47.822;9.402;2022-09-09T04:49:22;6.32;;;2.28;;
15958;SDS011;8078;47.822;9.402;2022-09-09T04:51:48;3.42;;;2.00;;
15958;SDS011;8078;47.822;9.402;2022-09-09T04:54:14;3.88;;;2.00;;
15958;SDS011;8078;47.822;9.402;2022-09-09T04:56:40;4.40;;;2.28;;
15958;SDS011;8078;47.822;9.402;2022-09-09T04:59:07;3.53;;;2.20;;
15958;SDS011;8078;47.822;9.402;2022-09-09T05:01:32;4.68;;;2.45;;
15958;SDS011;8078;47.822;9.402;2022-09-09T05:03:58;7.88;;;2.40;;
15958;SDS011;8078;47.822;9.402;2022-09-09T05:06:24;4.20;;;2.20;;
15958;SDS011;8078;47.822;9.402;2022-09-09T05:08:50;7.82;;;2.58;;
15958;SDS011;8078;47.822;9.402;2022-09-09T05:13:49;6.80;;;2.83;;
15958;SDS011;8078;47.822;9.402;2022-09-09T05:16:15;5.28;;;2.80;;
15958;SDS011;8078;47.822;9.402;2022-09-09T05:18:41;6.35;;;2.65;;
15958;SDS011;8078;47.822;9.402;2022-09-09T05:21:08;5.90;;;3.10;;
15958;SDS011;8078;47.822;9.402;2022-09-09T05:23:34;6.53;;;2.97;;
15958;SDS011;8078;47.822;9.402;2022-09-09T05:26:00;2.90;;;2.57;;
15958;SDS011;8078;47.822;9.402;2022-09-09T05:28:26;4.63;;;2.83;;
15958;SDS011;8078;47.822;9.402;2022-09-09T05:30:59;4.35;;;2.83;;
15958;SDS011;8078;47.822;9.402;2022-09-09T05:33:28;3.58;;;2.67;;
15958;SDS011;8078;47.822;9.402;2022-09-09T05:35:58;6.90;;;2.87;;
15958;SDS011;8078;47.822;9.402;2022-09-09T05:38:24;8.90;;;2.90;;
15958;SDS011;8078;47.822;9.402;2022-09-09T05:40:51;5.93;;;2.70;;
15958;SDS011;8078;47.822;9.402;2022-09-09T05:43:17;5.88;;;2.58;;
15958;SDS011;8078;47.822;9.402;2022-09-09T05:45:45;7.55;;;2.53;;
15958;SDS011;8078;47.822;9.402;2022-09-09T05:48:12;7.40;;;2.60;;
15958;SDS011;8078;47.822;9.402;2022-09-09T05:50:40;4.05;;;2.75;;
15958;SDS011;8078;47.822;9.402;2022-09-09T05:53:05;6.18;;;2.58;;
15958;SDS011;8078;47.822;9.402;2022-09-09T05:55:31;6.47;;;2.58;;
15958;SDS011;8078;47.822;9.402;2022-09-09T05:57:57;4.05;;;2.50;;
15958;SDS011;8078;47.822;9.402;2022-09-09T06:00:22;8.57;;;2.80;;
15958;SDS011;8078;47.822;9.402;2022-09-09T06:02:51;7.05;;;2.80;;
15958;SDS011;8078;47.822;9.402;2022-09-09T06:05:17;4.47;;;2.97;;
15958;SDS011;8078;47.822;9.402;2022-09-09T06:07:43;6.55;;;3.17;;
15958;SDS011;8078;47.822;9.402;2022-09-09T06:10:09;11.32;;;3.20;;
15958;SDS011;8078;47.822;9.402;2022-09-09T06:12:38;6.47;;;3.43;;
15958;SDS011;8078;47.822;9.402;2022-09-09T06:15:04;9.73;;;3.30;;
15958;SDS011;8078;47.822;9.402;2022-09-09T06:17:30;11.63;;;4.00;;
15958;SDS011;8078;47.822;9.402;2022-09-09T06:19:56;7.43;;;3.60;;
15958;SDS011;8078;47.822;9.402;2022-09-09T06:22:22;10.80;;;3.85;;
15958;SDS011;8078;47.822;9.402;2022-09-09T06:24:47;9.13;;;3.97;;
15958;SDS011;8078;47.822;9.402;2022-09-09T06:27:13;55.33;;;6.22;;
15958;SDS011;8078;47.822;9.402;2022-09-09T06:29:38;546.42;;;34.30;;
15958;SDS011;8078;47.822;9.402;2022-09-09T06:32:04;221.13;;;16.00;;
15958;SDS011;8078;47.822;9.402;2022-09-09T06:34:30;234.45;;;16.77;;
15958;SDS011;8078;47.822;9.402;2022-09-09T06:36:55;120.00;;;9.40;;
15958;SDS011;8078;47.822;9.402;2022-09-09T06:39:22;386.88;;;21.67;;
15958;SDS011;8078;47.822;9.402;2022-09-09T06:41:48;690.37;;;46.23;;
15958;SDS011;8078;47.822;9.402;2022-09-09T06:44:14;871.70;;;59.00;;
15958;SDS011;8078;47.822;9.402;2022-09-09T06:46:40;767.58;;;50.95;;
15958;SDS011;8078;47.822;9.402;2022-09-09T06:49:06;973.53;;;62.63;;
15958;SDS011;8078;47.822;9.402;2022-09-09T06:51:34;636.90;;;42.07;;
15958;SDS011;8078;47.822;9.402;2022-09-09T06:54:01;618.95;;;38.88;;
15958;SDS011;8078;47.822;9.402;2022-09-09T06:56:32;28.75;;;6.45;;
15958;SDS011;8078;47.822;9.402;2022-09-09T06:58:59;24.90;;;6.15;;
15958;SDS011;8078;47.822;9.402;2022-09-09T07:01:28;7.00;;;4.55;;
15958;SDS011;8078;47.822;9.402;2022-09-09T07:03:58;5.88;;;4.25;;
15958;SDS011;8078;47.822;9.402;2022-09-09T07:06:25;5.85;;;4.47;;
15958;SDS011;8078;47.822;9.402;2022-09-09T07:08:53;7.60;;;3.45;;
15958;SDS011;8078;47.822;9.402;2022-09-09T07:11:20;8.73;;;3.20;;
15958;SDS011;8078;47.822;9.402;2022-09-09T07:13:48;5.22;;;2.50;;
15958;SDS011;8078;47.822;9.402;2022-09-09T07:16:17;4.38;;;2.53;;
15958;SDS011;8078;47.822;9.402;2022-09-09T07:18:45;4.05;;;2.47;;
15958;SDS011;8078;47.822;9.402;2022-09-09T07:21:12;5.90;;;2.67;;
15958;SDS011;8078;47.822;9.402;2022-09-09T07:23:38;4.47;;;2.70;;
15958;SDS011;8078;47.822;9.402;2022-09-09T07:26:12;3.80;;;2.17;;
15958;SDS011;8078;47.822;9.402;2022-09-09T07:28:39;4.30;;;2.47;;
15958;SDS011;8078;47.822;9.402;2022-09-09T07:31:06;3.95;;;2.47;;
15958;SDS011;8078;47.822;9.402;2022-09-09T07:33:38;2.17;;;2.00;;
15958;SDS011;8078;47.822;9.402;2022-09-09T07:38:38;5.15;;;2.75;;
15958;SDS011;8078;47.822;9.402;2022-09-09T07:41:05;4.55;;;2.70;;
15958;SDS011;8078;47.822;9.402;2022-09-09T07:43:36;4.15;;;3.15;;
15958;SDS011;8078;47.822;9.402;2022-09-09T07:46:04;5.95;;;2.67;;
15958;SDS011;8078;47.822;9.402;2022-09-09T07:48:30;5.80;;;2.47;;
15958;SDS011;8078;47.822;9.402;2022-09-09T07:53:31;3.40;;;2.80;;
15958;SDS011;8078;47.822;9.402;2022-09-09T07:56:02;5.13;;;2.63;;
15958;SDS011;8078;47.822;9.402;2022-09-09T07:58:29;3.95;;;2.15;;
15958;SDS011;8078;47.822;9.402;2022-09-09T08:00:54;3.33;;;2.30;;
15958;SDS011;8078;47.822;9.402;2022-09-09T08:03:20;3.47;;;2.13;;
15958;SDS011;8078;47.822;9.402;2022-09-09T08:05:47;2.88;;;2.20;;
15958;SDS011;8078;47.822;9.402;2022-09-09T08:08:12;3.42;;;2.00;;
15958;SDS011;8078;47.822;9.402;2022-09-09T08:10:38;3.78;;;2.20;;
15958;SDS011;8078;47.822;9.402;2022-09-09T08:13:03;2.10;;;1.70;;
15958;SDS011;8078;47.822;9.402;2022-09-09T08:15:29;3.50;;;2.53;;
15958;SDS011;8078;47.822;9.402;2022-09-09T08:17:56;6.22;;;2.20;;
15958;SDS011;8078;47.822;9.402;2022-09-09T08:20:21;4.03;;;1.83;;
15958;SDS011;8078;47.822;9.402;2022-09-09T08:22:48;4.40;;;1.90;;
15958;SDS011;8078;47.822;9.402;2022-09-09T08:25:14;3.55;;;1.80;;
15958;SDS011;8078;47.822;9.402;2022-09-09T08:27:40;4.35;;;1.52;;
15958;SDS011;8078;47.822;9.402;2022-09-09T08:30:06;5.53;;;1.80;;
15958;SDS011;8078;47.822;9.402;2022-09-09T08:32:32;3.85;;;1.80;;
15958;SDS011;8078;47.822;9.402;2022-09-09T08:34:57;4.50;;;1.58;;
15958;SDS011;8078;47.822;9.402;2022-09-09T08:37:23;3.58;;;1.70;;
15958;SDS011;8078;47.822;9.402;2022-09-09T08:39:48;4.90;;;1.60;;
15958;SDS011;8078;47.822;9.402;2022-09-09T08:42:23;5.60;;;2.10;;
15958;SDS011;8078;47.822;9.402;2022-09-09T08:50:37;6.28;;;2.10;;
15958;SDS011;8078;47.822;9.402;2022-09-09T08:53:09;7.72;;;2.05;;
15958;SDS011;8078;47.822;9.402;2022-09-09T08:58:21;4.63;;;1.50;;
15958;SDS011;8078;47.822;9.402;2022-09-09T09:09:02;4.82;;;1.95;;
15958;SDS011;8078;47.822;9.402;2022-09-09T09:11:51;7.32;;;1.40;;
15958;SDS011;8078;47.822;9.402;2022-09-09T09:14:23;6.63;;;1.60;;
15958;SDS011;8078;47.822;9.402;2022-09-09T09:16:51;4.75;;;1.80;;
15958;SDS011;8078;47.822;9.402;2022-09-09T09:19:17;4.57;;;1.30;;
15958;SDS011;8078;47.822;9.402;2022-09-09T09:22:04;5.45;;;1.60;;
15958;SDS011;8078;47.822;9.402;2022-09-09T09:24:40;3.97;;;1.40;;
15958;SDS011;8078;47.822;9.402;2022-09-09T09:27:36;2.72;;;1.67;;
15958;SDS011;8078;47.822;9.402;2022-09-09T09:32:38;1.67;;;1.40;;
15958;SDS011;8078;47.822;9.402;2022-09-09T09:35:12;4.68;;;1.75;;
15958;SDS011;8078;47.822;9.402;2022-09-09T09:37:39;4.28;;;1.48;;
15958;SDS011;8078;47.822;9.402;2022-09-09T09:40:13;5.53;;;1.73;;
15958;SDS011;8078;47.822;9.402;2022-09-09T09:45:41;3.67;;;1.80;;
15958;SDS011;8078;47.822;9.402;2022-09-09T09:48:10;6.05;;;2.13;;
15958;SDS011;8078;47.822;9.402;2022-09-09T09:50:46;2.28;;;1.70;;
15958;SDS011;8078;47.822;9.402;2022-09-09T09:53:24;6.38;;;2.65;;
15958;SDS011;8078;47.822;9.402;2022-09-09T09:55:55;5.38;;;2.00;;
15958;SDS011;8078;47.822;9.402;2022-09-09T09:58:26;4.95;;;2.42;;
15958;SDS011;8078;47.822;9.402;2022-09-09T10:00:57;7.15;;;2.70;;
15958;SDS011;8078;47.822;9.402;2022-09-09T10:03:24;3.20;;;1.85;;
15958;SDS011;8078;47.822;9.402;2022-09-09T10:05:52;4.10;;;2.00;;
15958;SDS011;8078;47.822;9.402;2022-09-09T10:08:18;7.03;;;2.10;;
15958;SDS011;8078;47.822;9.402;2022-09-09T10:41:32;4.60;;;1.35;;
15958;SDS011;8078;47.822;9.402;2022-09-09T10:44:17;3.33;;;1.30;;
15958;SDS011;8078;47.822;9.402;2022-09-09T10:46:59;3.15;;;1.50;;
15958;SDS011;8078;47.822;9.402;2022-09-09T10:49:56;2.80;;;1.38;;
15958;SDS011;8078;47.822;9.402;2022-09-09T10:55:24;2.63;;;1.58;;
15958;SDS011;8078;47.822;9.402;2022-09-09T10:57:56;3.20;;;1.40;;
15958;SDS011;8078;47.822;9.402;2022-09-09T11:00:27;3.28;;;1.52;;
15958;SDS011;8078;47.822;9.402;2022-09-09T11:03:03;3.80;;;1.25;;
15958;SDS011;8078;47.822;9.402;2022-09-09T11:08:10;3.15;;;1.35;;
15958;SDS011;8078;47.822;9.402;2022-09-09T11:13:09;3.70;;;1.38;;
15958;SDS011;8078;47.822;9.402;2022-09-09T11:15:49;3.17;;;1.25;;
15958;SDS011;8078;47.822;9.402;2022-09-09T11:18:21;5.55;;;1.42;;
15958;SDS011;8078;47.822;9.402;2022-09-09T11:20:49;5.60;;;1.50;;
15958;SDS011;8078;47.822;9.402;2022-09-09T11:23:23;2.88;;;1.30;;
15958;SDS011;8078;47.822;9.402;2022-09-09T11:26:27;4.53;;;1.50;;
15958;SDS011;8078;47.822;9.402;2022-09-09T11:34:27;3.08;;;1.42;;
15958;SDS011;8078;47.822;9.402;2022-09-09T11:40:24;2.65;;;1.33;;
15958;SDS011;8078;47.822;9.402;2022-09-09T11:43:00;3.00;;;1.30;;
15958;SDS011;8078;47.822;9.402;2022-09-09T11:46:02;3.15;;;1.45;;
15958;SDS011;8078;47.822;9.402;2022-09-09T11:48:29;3.35;;;1.50;;
15958;SDS011;8078;47.822;9.402;2022-09-09T11:51:07;2.28;;;1.25;;
15958;SDS011;8078;47.822;9.402;2022-09-09T11:53:35;3.75;;;1.40;;
15958;SDS011;8078;47.822;9.402;2022-09-09T11:56:12;4.18;;;1.20;;
15958;SDS011;8078;47.822;9.402;2022-09-09T11:58:55;2.95;;;1.15;;
15958;SDS011;8078;47.822;9.402;2022-09-09T12:04:05;2.92;;;1.30;;
15958;SDS011;8078;47.822;9.402;2022-09-09T12:07:03;3.83;;;1.17;;
15958;SDS011;8078;47.822;9.402;2022-09-09T12:09:51;2.47;;;1.30;;
15958;SDS011;8078;47.822;9.402;2022-09-09T12:12:31;2.22;;;1.20;;
15958;SDS011;8078;47.822;9.402;2022-09-09T12:15:00;1.80;;;1.02;;
15958;SDS011;8078;47.822;9.402;2022-09-09T12:17:36;3.08;;;1.13;;
15958;SDS011;8078;47.822;9.402;2022-09-09T12:20:13;2.83;;;1.20;;
15958;SDS011;8078;47.822;9.402;2022-09-09T12:22:48;4.50;;;1.25;;
15958;SDS011;8078;47.822;9.402;2022-09-09T12:28:00;2.63;;;1.40;;
15958;SDS011;8078;47.822;9.402;2022-09-09T12:30:33;2.30;;;1.02;;
15958;SDS011;8078;47.822;9.402;2022-09-09T12:33:09;3.05;;;1.10;;
15958;SDS011;8078;47.822;9.402;2022-09-09T12:35:38;2.90;;;1.10;;
15958;SDS011;8078;47.822;9.402;2022-09-09T12:38:05;2.38;;;1.20;;
15958;SDS011;8078;47.822;9.402;2022-09-09T12:40:36;2.33;;;1.05;;
15958;SDS011;8078;47.822;9.402;2022-09-09T12:43:14;1.73;;;1.33;;
15958;SDS011;8078;47.822;9.402;2022-09-09T12:45:46;2.60;;;1.10;;
15958;SDS011;8078;47.822;9.402;2022-09-09T12:48:15;2.42;;;1.15;;
15958;SDS011;8078;47.822;9.402;2022-09-09T12:50:45;2.78;;;1.15;;
15958;SDS011;8078;47.822;9.402;2022-09-09T12:53:27;2.10;;;1.00;;
15958;SDS011;8078;47.822;9.402;2022-09-09T12:55:57;2.90;;;1.10;;
15958;SDS011;8078;47.822;9.402;2022-09-09T12:58:25;3.15;;;1.20;;
15958;SDS011;8078;47.822;9.402;2022-09-09T13:00:54;3.00;;;1.10;;
15958;SDS011;8078;47.822;9.402;2022-09-09T13:03:21;5.32;;;1.10;;
15958;SDS011;8078;47.822;9.402;2022-09-09T13:05:48;5.95;;;1.30;;
15958;SDS011;8078;47.822;9.402;2022-09-09T13:08:15;2.85;;;1.00;;
15958;SDS011;8078;47.822;9.402;2022-09-09T13:13:29;2.67;;;1.10;;
15958;SDS011;8078;47.822;9.402;2022-09-09T13:15:56;4.15;;;1.25;;
15958;SDS011;8078;47.822;9.402;2022-09-09T13:18:24;2.95;;;1.00;;
15958;SDS011;8078;47.822;9.402;2022-09-09T13:20:53;1.73;;;1.17;;
15958;SDS011;8078;47.822;9.402;2022-09-09T13:23:21;1.23;;;1.10;;
15958;SDS011;8078;47.822;9.402;2022-09-09T13:25:54;2.53;;;1.25;;
15958;SDS011;8078;47.822;9.402;2022-09-09T13:28:25;2.55;;;1.20;;
15958;SDS011;8078;47.822;9.402;2022-09-09T13:31:00;1.83;;;1.33;;
15958;SDS011;8078;47.822;9.402;2022-09-09T13:35:59;3.65;;;1.10;;
15958;SDS011;8078;47.822;9.402;2022-09-09T13:38:29;1.33;;;1.00;;
15958;SDS011;8078;47.822;9.402;2022-09-09T13:41:03;4.93;;;1.00;;
15958;SDS011;8078;47.822;9.402;2022-09-09T13:43:43;4.05;;;1.48;;
15958;SDS011;8078;47.822;9.402;2022-09-09T13:46:40;2.38;;;1.27;;
15958;SDS011;8078;47.822;9.402;2022-09-09T13:54:02;1.40;;;1.20;;
15958;SDS011;8078;47.822;9.402;2022-09-09T13:56:31;4.35;;;1.42;;
15958;SDS011;8078;47.822;9.402;2022-09-09T13:58:58;2.83;;;1.15;;
15958;SDS011;8078;47.822;9.402;2022-09-09T14:01:24;3.65;;;1.13;;
15958;SDS011;8078;47.822;9.402;2022-09-09T14:03:49;1.77;;;1.27;;
15958;SDS011;8078;47.822;9.402;2022-09-09T14:06:15;3.20;;;1.20;;
15958;SDS011;8078;47.822;9.402;2022-09-09T14:08:43;1.80;;;1.20;;
15958;SDS011;8078;47.822;9.402;2022-09-09T14:11:11;1.63;;;1.30;;
15958;SDS011;8078;47.822;9.402;2022-09-09T14:13:37;2.88;;;1.23;;
15958;SDS011;8078;47.822;9.402;2022-09-09T14:16:03;4.65;;;1.02;;
15958;SDS011;8078;47.822;9.402;2022-09-09T14:18:29;2.00;;;1.15;;
15958;SDS011;8078;47.822;9.402;2022-09-09T14:22:03;2.08;;;1.23;;
15958;SDS011;8078;47.822;9.402;2022-09-09T14:24:29;1.60;;;1.10;;
15958;SDS011;8078;47.822;9.402;2022-09-09T14:26:55;3.78;;;1.02;;
15958;SDS011;8078;47.822;9.402;2022-09-09T14:29:20;3.33;;;0.95;;
15958;SDS011;8078;47.822;9.402;2022-09-09T14:31:46;1.95;;;1.00;;
15958;SDS011;8078;47.822;9.402;2022-09-09T14:34:12;2.00;;;1.10;;
15958;SDS011;8078;47.822;9.402;2022-09-09T14:36:39;2.92;;;1.02;;
15958;SDS011;8078;47.822;9.402;2022-09-09T14:39:06;2.75;;;1.17;;
15958;SDS011;8078;47.822;9.402;2022-09-09T14:41:32;3.80;;;1.10;;
15958;SDS011;8078;47.822;9.402;2022-09-09T14:43:57;2.22;;;0.90;;
15958;SDS011;8078;47.822;9.402;2022-09-09T14:46:24;3.75;;;0.98;;
15958;SDS011;8078;47.822;9.402;2022-09-09T14:48:51;3.58;;;0.90;;
15958;SDS011;8078;47.822;9.402;2022-09-09T14:51:18;2.95;;;1.20;;
15958;SDS011;8078;47.822;9.402;2022-09-09T14:53:47;4.78;;;1.20;;
15958;SDS011;8078;47.822;9.402;2022-09-09T14:56:14;4.10;;;0.90;;
15958;SDS011;8078;47.822;9.402;2022-09-09T14:58:41;1.83;;;0.90;;
15958;SDS011;8078;47.822;9.402;2022-09-09T15:01:09;2.15;;;1.05;;
15958;SDS011;8078;47.822;9.402;2022-09-09T15:03:36;1.73;;;1.02;;
15958;SDS011;8078;47.822;9.402;2022-09-09T15:06:11;2.25;;;0.88;;
15958;SDS011;8078;47.822;9.402;2022-09-09T15:08:39;2.58;;;1.02;;
15958;SDS011;8078;47.822;9.402;2022-09-09T15:11:06;2.25;;;1.10;;
15958;SDS011;8078;47.822;9.402;2022-09-09T15:13:35;3.50;;;1.42;;
15958;SDS011;8078;47.822;9.402;2022-09-09T15:16:14;2.38;;;1.20;;
15958;SDS011;8078;47.822;9.402;2022-09-09T15:18:42;1.10;;;1.00;;
15958;SDS011;8078;47.822;9.402;2022-09-09T15:21:14;4.60;;;1.58;;
15958;SDS011;8078;47.822;9.402;2022-09-09T15:23:41;3.05;;;1.45;;
15958;SDS011;8078;47.822;9.402;2022-09-09T15:26:07;3.10;;;1.40;;
15958;SDS011;8078;47.822;9.402;2022-09-09T15:28:34;2.08;;;1.40;;
15958;SDS011;8078;47.822;9.402;2022-09-09T15:31:05;2.67;;;1.20;;
15958;SDS011;8078;47.822;9.402;2022-09-09T15:33:35;2.78;;;1.40;;
15958;SDS011;8078;47.822;9.402;2022-09-09T15:36:19;1.83;;;1.50;;
15958;SDS011;8078;47.822;9.402;2022-09-09T15:38:49;5.82;;;1.70;;
15958;SDS011;8078;47.822;9.402;2022-09-09T15:41:15;2.85;;;1.60;;
15958;SDS011;8078;47.822;9.402;2022-09-09T15:43:45;3.58;;;1.33;;
15958;SDS011;8078;47.822;9.402;2022-09-09T15:48:52;3.47;;;1.30;;
15958;SDS011;8078;47.822;9.402;2022-09-09T15:51:20;2.47;;;1.40;;
15958;SDS011;8078;47.822;9.402;2022-09-09T15:53:47;2.40;;;1.35;;
15958;SDS011;8078;47.822;9.402;2022-09-09T15:56:13;3.85;;;1.40;;
15958;SDS011;8078;47.822;9.402;2022-09-09T15:58:39;5.35;;;1.42;;
15958;SDS011;8078;47.822;9.402;2022-09-09T16:01:05;2.30;;;1.20;;
15958;SDS011;8078;47.822;9.402;2022-09-09T16:03:35;2.95;;;1.20;;
15958;SDS011;8078;47.822;9.402;2022-09-09T16:06:02;4.82;;;2.05;;
15958;SDS011;8078;47.822;9.402;2022-09-09T16:08:33;3.25;;;1.50;;
15958;SDS011;8078;47.822;9.402;2022-09-09T16:11:10;2.33;;;1.20;;
15958;SDS011;8078;47.822;9.402;2022-09-09T16:13:39;1.88;;;1.40;;
15958;SDS011;8078;47.822;9.402;2022-09-09T16:16:06;3.03;;;1.15;;
15958;SDS011;8078;47.822;9.402;2022-09-09T16:18:39;3.00;;;1.20;;
15958;SDS011;8078;47.822;9.402;2022-09-09T16:21:14;2.83;;;1.40;;
15958;SDS011;8078;47.822;9.402;2022-09-09T16:23:42;6.72;;;2.30;;
15958;SDS011;8078;47.822;9.402;2022-09-09T16:26:10;7.15;;;1.60;;
15958;SDS011;8078;47.822;9.402;2022-09-09T16:28:37;5.45;;;1.60;;
15958;SDS011;8078;47.822;9.402;2022-09-09T16:31:07;2.17;;;1.23;;
15958;SDS011;8078;47.822;9.402;2022-09-09T16:33:35;2.78;;;1.20;;
15958;SDS011;8078;47.822;9.402;2022-09-09T16:36:05;2.03;;;1.10;;
15958;SDS011;8078;47.822;9.402;2022-09-09T16:38:35;3.20;;;1.33;;
15958;SDS011;8078;47.822;9.402;2022-09-09T16:41:02;1.63;;;1.15;;
15958;SDS011;8078;47.822;9.402;2022-09-09T16:43:30;2.72;;;1.17;;
15958;SDS011;8078;47.822;9.402;2022-09-09T16:46:00;3.47;;;1.30;;
15958;SDS011;8078;47.822;9.402;2022-09-09T16:48:27;5.40;;;1.17;;
15958;SDS011;8078;47.822;9.402;2022-09-09T16:51:00;2.63;;;1.27;;
15958;SDS011;8078;47.822;9.402;2022-09-09T16:53:36;1.33;;;1.20;;
15958;SDS011;8078;47.822;9.402;2022-09-09T16:56:05;1.88;;;1.30;;
15958;SDS011;8078;47.822;9.402;2022-09-09T16:58:31;5.22;;;1.52;;
15958;SDS011;8078;47.822;9.402;2022-09-09T17:00:58;2.53;;;1.50;;
15958;SDS011;8078;47.822;9.402;2022-09-09T17:03:24;2.15;;;1.38;;
15958;SDS011;8078;47.822;9.402;2022-09-09T17:05:49;2.67;;;1.63;;
15958;SDS011;8078;47.822;9.402;2022-09-09T17:08:15;2.90;;;1.50;;
15958;SDS011;8078;47.822;9.402;2022-09-09T17:10:41;1.67;;;1.58;;
15958;SDS011;8078;47.822;9.402;2022-09-09T17:13:07;4.30;;;1.20;;
15958;SDS011;8078;47.822;9.402;2022-09-09T17:15:33;4.57;;;1.50;;
15958;SDS011;8078;47.822;9.402;2022-09-09T17:18:03;4.97;;;1.60;;
15958;SDS011;8078;47.822;9.402;2022-09-09T17:20:29;2.40;;;1.67;;
15958;SDS011;8078;47.822;9.402;2022-09-09T17:22:54;2.55;;;1.50;;
15958;SDS011;8078;47.822;9.402;2022-09-09T17:25:20;2.42;;;1.50;;
15958;SDS011;8078;47.822;9.402;2022-09-09T17:27:47;2.70;;;1.40;;
15958;SDS011;8078;47.822;9.402;2022-09-09T17:30:12;2.25;;;1.30;;
15958;SDS011;8078;47.822;9.402;2022-09-09T17:32:38;1.80;;;1.00;;
15958;SDS011;8078;47.822;9.402;2022-09-09T17:35:04;3.47;;;1.23;;
15958;SDS011;8078;47.822;9.402;2022-09-09T17:37:30;2.58;;;1.20;;
15958;SDS011;8078;47.822;9.402;2022-09-09T17:39:56;5.82;;;1.15;;
15958;SDS011;8078;47.822;9.402;2022-09-09T17:42:22;1.75;;;1.00;;